This is the latest recevied weather packets stored in our database for station/object OE-11399. If no packets are shown the sender has not sent any weather packets the latest 10 day(s).
| Time | Temp. | Humidity | Pressure | Rain* | Wind** | Luminosity | Snow |
|---|---|---|---|---|---|---|---|
| 1787763326 | 22.78° C | 57% | 854.6 hPa | 0 mm | - | 139 W/m² | - |
| 1787762500 | 22.78° C | 56% | 854.6 hPa | 0 mm | - | 132 W/m² | - |
| 1787762127 | 22.78° C | 55% | 854.8 hPa | 0 mm | - | 132 W/m² | - |
| 1787761527 | 23.33° C | 54% | 854.8 hPa | 0 mm | - | 220 W/m² | - |
| 1787760700 | 23.33° C | 54% | 854.8 hPa | 0 mm | - | 330 W/m² | - |
| 1787760327 | 23.33° C | 52% | 854.9 hPa | 0 mm | - | 235 W/m² | - |
| 1787759727 | 23.33° C | 53% | 854.6 hPa | 0 mm | - | 220 W/m² | - |
| 1787758900 | 23.33° C | 52% | 854.8 hPa | 0 mm | - | 183 W/m² | - |
| 1787758526 | 23.89° C | 51% | 854.9 hPa | 0 mm | - | 323 W/m² | - |
| 1787757927 | 23.89° C | 51% | 855 hPa | 0 mm | - | 396 W/m² | - |
| 1787757100 | 24.44° C | 51% | 854.8 hPa | 0 mm | - | 440 W/m² | - |
| 1787756727 | 24.44° C | 50% | 855.1 hPa | 0 mm | - | 484 W/m² | - |
| 1787756127 | 24.44° C | 50% | 855 hPa | 0 mm | - | 558 W/m² | - |
| 1787755300 | 24.44° C | 52% | 855.1 hPa | 0 mm | - | 580 W/m² | - |
| 1787754927 | 24.44° C | 53% | 855.1 hPa | 0 mm | - | 580 W/m² | - |
| 1787754327 | 24.44° C | 52% | 855.1 hPa | 0 mm | - | 616 W/m² | - |
| 1787753500 | 24.44° C | 50% | 855.2 hPa | 0 mm | - | 697 W/m² | - |
| 1787753127 | 24.44° C | 48% | 855.1 hPa | 0 mm | - | 536 W/m² | - |
| 1787752527 | 24.44° C | 48% | 855.1 hPa | 0 mm | - | 734 W/m² | - |
| 1787751700 | 24.44° C | 46% | 855 hPa | 0 mm | - | 726 W/m² | - |
| 1787751327 | 23.89° C | 46% | 855 hPa | 0 mm | - | 704 W/m² | - |
| 1787749900 | 23.33° C | 57% | 855.1 hPa | 0 mm | - | 690 W/m² | - |
| 1787749527 | 23.33° C | 58% | 855.1 hPa | 0 mm | - | 712 W/m² | - |
| 1787748927 | 22.78° C | 59% | 855.1 hPa | 0 mm | - | 396 W/m² | - |
| 1787748100 | 22.22° C | 59% | 855.1 hPa | 0 mm | - | 264 W/m² | - |
* Rain latest hour (hover to see other rain measurements)
** Current wind speed in m/s (hover to see current wind gust speed)